createdAt,value
2023-05-14T00:01:11.340Z,9.98
2023-05-14T00:03:38.692Z,13.60
2023-05-14T00:06:06.594Z,8.30
2023-05-14T00:08:34.113Z,10.13
2023-05-14T00:11:01.830Z,12.00
2023-05-14T00:13:29.436Z,8.05
2023-05-14T00:15:58.627Z,7.90
2023-05-14T00:18:26.033Z,11.90
2023-05-14T00:20:53.828Z,7.82
2023-05-14T00:23:21.324Z,11.38
2023-05-14T00:25:48.931Z,8.00
2023-05-14T00:28:16.267Z,9.70
2023-05-14T00:30:44.398Z,11.52
2023-05-14T00:33:13.050Z,10.35
2023-05-14T00:35:40.720Z,11.43
2023-05-14T00:38:08.011Z,10.07
2023-05-14T00:40:35.774Z,10.35
2023-05-14T00:43:03.191Z,7.95
2023-05-14T00:45:30.980Z,7.10
2023-05-14T00:47:58.572Z,10.18
2023-05-14T00:50:27.891Z,10.10
2023-05-14T00:52:55.099Z,9.90
2023-05-14T00:55:22.927Z,10.95
2023-05-14T00:57:51.029Z,9.25
2023-05-14T01:00:19.172Z,8.65
2023-05-14T01:02:46.670Z,9.65
2023-05-14T01:05:14.881Z,10.40
2023-05-14T01:07:54.565Z,9.18
2023-05-14T01:10:27.933Z,11.95
2023-05-14T01:13:04.139Z,10.20
2023-05-14T01:15:34.641Z,9.82
2023-05-14T01:18:04.781Z,10.88
2023-05-14T01:20:32.793Z,12.02
2023-05-14T01:23:01.509Z,10.98
2023-05-14T01:25:31.355Z,13.68
2023-05-14T01:28:06.525Z,11.20
2023-05-14T01:30:37.034Z,16.05
2023-05-14T01:33:10.052Z,11.57
2023-05-14T01:35:38.342Z,11.93
2023-05-14T01:38:10.122Z,16.00
2023-05-14T01:40:38.418Z,10.10
2023-05-14T01:43:06.405Z,9.02
2023-05-14T01:45:36.594Z,11.63
2023-05-14T01:48:04.770Z,11.73
2023-05-14T01:50:32.517Z,11.60
2023-05-14T01:52:59.957Z,10.55
2023-05-14T01:55:29.752Z,13.27
2023-05-14T01:57:57.013Z,10.00
2023-05-14T02:00:25.449Z,12.98
2023-05-14T02:02:53.355Z,11.43
2023-05-14T02:05:21.535Z,12.18
2023-05-14T02:07:49.164Z,11.30
2023-05-14T02:10:18.523Z,11.65
2023-05-14T02:12:47.496Z,11.40
2023-05-14T02:15:15.288Z,11.38
2023-05-14T02:17:42.763Z,10.05
2023-05-14T02:20:11.774Z,10.13
2023-05-14T02:22:39.289Z,9.18
2023-05-14T02:25:08.630Z,11.25
2023-05-14T02:27:36.245Z,9.60
2023-05-14T02:30:06.759Z,10.43
2023-05-14T02:32:34.381Z,12.20
2023-05-14T02:35:02.650Z,10.98
2023-05-14T02:37:29.845Z,8.98
2023-05-14T02:39:57.207Z,9.13
2023-05-14T02:42:25.002Z,9.75
2023-05-14T02:44:52.503Z,8.52
2023-05-14T02:47:21.924Z,9.38
2023-05-14T02:49:49.396Z,10.30
2023-05-14T02:52:17.377Z,10.98
2023-05-14T02:54:44.680Z,13.20
2023-05-14T02:57:12.627Z,14.85
2023-05-14T02:59:40.040Z,12.88
2023-05-14T03:02:08.259Z,13.15
2023-05-14T03:04:37.740Z,11.57
2023-05-14T03:07:05.931Z,11.13
2023-05-14T03:09:33.239Z,12.63
2023-05-14T03:12:01.449Z,10.65
2023-05-14T03:14:28.764Z,12.07
2023-05-14T03:16:56.920Z,12.27
2023-05-14T03:19:24.410Z,9.52
2023-05-14T03:21:53.725Z,8.60
2023-05-14T03:24:21.197Z,13.18
2023-05-14T03:26:48.928Z,10.93
2023-05-14T03:29:16.382Z,10.52
2023-05-14T03:31:44.355Z,11.57
2023-05-14T03:34:11.787Z,11.88
2023-05-14T03:36:39.772Z,10.45
2023-05-14T03:39:08.566Z,8.98
2023-05-14T03:41:36.725Z,10.82
2023-05-14T03:44:04.149Z,10.00
2023-05-14T03:46:32.359Z,12.98
2023-05-14T03:48:59.826Z,10.43
2023-05-14T03:51:27.601Z,11.05
2023-05-14T03:53:54.964Z,11.52
2023-05-14T03:56:24.219Z,11.57
2023-05-14T03:58:51.765Z,10.50
2023-05-14T04:01:19.486Z,12.88
2023-05-14T04:03:47.017Z,11.13
2023-05-14T04:06:15.005Z,13.52
2023-05-14T04:08:42.333Z,13.35
2023-05-14T04:11:10.075Z,12.68
2023-05-14T04:13:39.058Z,12.52
2023-05-14T04:16:07.128Z,12.23
2023-05-14T04:18:34.521Z,18.95
2023-05-14T04:21:03.126Z,12.52
2023-05-14T04:23:30.667Z,13.32
2023-05-14T04:25:58.610Z,12.40
2023-05-14T04:28:25.876Z,13.25
2023-05-14T04:30:55.133Z,13.27
2023-05-14T04:33:22.636Z,11.57
2023-05-14T04:35:50.325Z,13.10
2023-05-14T04:38:17.676Z,12.48
2023-05-14T04:40:45.651Z,12.07
2023-05-14T04:43:13.165Z,12.52
2023-05-14T04:45:41.205Z,13.15
2023-05-14T04:48:09.954Z,13.45
2023-05-14T04:50:37.861Z,12.60
2023-05-14T04:53:05.407Z,13.38
2023-05-14T04:55:33.286Z,11.60
2023-05-14T04:58:00.752Z,12.43
2023-05-14T05:00:28.928Z,12.82
2023-05-14T05:02:56.569Z,12.77
2023-05-14T05:05:25.957Z,12.05
2023-05-14T05:07:53.303Z,12.45
2023-05-14T05:10:21.390Z,12.82
2023-05-14T05:12:49.140Z,11.88
2023-05-14T05:15:20.074Z,11.73
2023-05-14T05:17:47.857Z,11.15
2023-05-14T05:20:16.118Z,10.80
2023-05-14T05:22:44.907Z,11.38
2023-05-14T05:25:12.685Z,12.18
2023-05-14T05:27:40.043Z,13.32
2023-05-14T05:30:08.877Z,11.73
2023-05-14T05:32:36.448Z,13.25
2023-05-14T05:35:04.414Z,9.95
2023-05-14T05:37:32.197Z,11.32
2023-05-14T05:40:01.120Z,12.50
2023-05-14T05:42:28.541Z,13.93
2023-05-14T05:44:56.306Z,12.80
2023-05-14T05:47:23.694Z,12.02
2023-05-14T05:49:51.490Z,10.95
2023-05-14T05:52:18.730Z,14.32
2023-05-14T05:54:46.691Z,12.73
2023-05-14T05:57:15.727Z,10.80
2023-05-14T05:59:43.780Z,10.93
2023-05-14T06:02:11.157Z,11.75
2023-05-14T06:04:38.956Z,11.82
2023-05-14T06:07:06.400Z,13.85
2023-05-14T06:09:34.175Z,10.73
2023-05-14T06:12:01.462Z,11.07
2023-05-14T06:14:31.975Z,11.52
2023-05-14T06:16:59.425Z,10.80
2023-05-14T06:19:27.484Z,11.43
2023-05-14T06:21:55.133Z,14.48
2023-05-14T06:24:23.213Z,13.40
2023-05-14T06:26:50.767Z,12.10
2023-05-14T06:29:18.661Z,12.57
2023-05-14T06:31:47.655Z,11.90
2023-05-14T06:34:15.406Z,13.38
2023-05-14T06:36:42.795Z,12.85
2023-05-14T06:39:10.546Z,14.35
2023-05-14T06:41:38.027Z,13.45
2023-05-14T06:44:05.699Z,14.43
2023-05-14T06:46:33.252Z,15.27
2023-05-14T06:49:02.539Z,11.35
2023-05-14T06:51:29.983Z,11.18
2023-05-14T06:53:57.813Z,11.40
2023-05-14T06:56:25.085Z,13.80
2023-05-14T06:58:53.089Z,10.00
2023-05-14T07:01:20.576Z,12.85
2023-05-14T07:03:48.448Z,14.55
2023-05-14T07:06:17.401Z,12.85
2023-05-14T07:08:45.162Z,15.75
2023-05-14T07:11:12.686Z,11.82
2023-05-14T07:13:43.266Z,10.77
2023-05-14T07:16:10.638Z,13.80
2023-05-14T07:18:38.449Z,10.95
2023-05-14T07:21:06.535Z,10.65
2023-05-14T07:23:36.049Z,10.98
2023-05-14T07:26:04.009Z,13.73
2023-05-14T07:28:31.870Z,8.95
2023-05-14T07:30:59.457Z,10.63
2023-05-14T07:33:27.458Z,8.93
2023-05-14T07:35:54.861Z,7.65
2023-05-14T07:38:22.882Z,7.55
2023-05-14T07:40:51.705Z,8.52
2023-05-14T07:43:19.636Z,10.02
2023-05-14T07:45:47.024Z,8.45
2023-05-14T07:48:14.959Z,7.32
2023-05-14T07:50:42.476Z,6.07
2023-05-14T07:53:10.106Z,7.93
2023-05-14T07:55:37.747Z,5.70
2023-05-14T07:58:06.933Z,6.68
2023-05-14T08:00:34.265Z,5.68
2023-05-14T08:03:05.781Z,5.70
2023-05-14T08:05:34.750Z,6.28
2023-05-14T08:08:02.622Z,5.55
2023-05-14T08:10:29.978Z,6.57
2023-05-14T08:12:57.920Z,7.05
2023-05-14T08:15:27.929Z,5.07
2023-05-14T08:17:55.935Z,3.95
2023-05-14T08:20:24.072Z,4.40
2023-05-14T08:22:51.975Z,4.78
2023-05-14T08:25:19.382Z,5.30
2023-05-14T08:27:47.114Z,4.13
2023-05-14T08:30:15.032Z,4.72
2023-05-14T08:32:44.154Z,5.03
2023-05-14T08:35:11.776Z,4.22
2023-05-14T08:37:39.566Z,4.18
2023-05-14T08:40:08.180Z,5.00
2023-05-14T08:42:38.506Z,4.63
2023-05-14T08:45:10.277Z,3.97
2023-05-14T08:47:38.226Z,4.13
2023-05-14T08:50:08.174Z,4.25
2023-05-14T08:52:36.063Z,4.55
2023-05-14T08:55:04.974Z,5.25
2023-05-14T08:57:33.842Z,4.28
2023-05-14T09:00:01.878Z,3.92
2023-05-14T09:02:30.763Z,3.58
2023-05-14T09:05:00.202Z,2.95
2023-05-14T09:07:29.194Z,5.22
2023-05-14T09:09:56.944Z,4.30
2023-05-14T09:12:24.415Z,3.45
2023-05-14T09:14:52.191Z,4.25
2023-05-14T09:17:19.912Z,4.43
2023-05-14T09:19:47.860Z,3.55
2023-05-14T09:22:16.761Z,3.88
2023-05-14T09:24:46.489Z,3.08
2023-05-14T09:27:18.449Z,3.60
2023-05-14T09:29:46.302Z,3.40
2023-05-14T09:32:15.652Z,4.18
2023-05-14T09:34:43.613Z,3.20
2023-05-14T09:37:10.992Z,3.58
2023-05-14T09:39:38.946Z,4.15
2023-05-14T09:42:08.158Z,3.85
2023-05-14T09:44:35.832Z,3.42
2023-05-14T09:47:03.291Z,4.93
2023-05-14T09:49:31.042Z,3.10
2023-05-14T09:51:58.364Z,5.90
2023-05-14T09:54:26.999Z,4.47
2023-05-14T09:56:55.749Z,2.92
2023-05-14T09:59:25.290Z,3.03
2023-05-14T10:01:53.688Z,3.00
2023-05-14T10:04:23.377Z,3.63
2023-05-14T10:06:53.427Z,5.30
2023-05-14T10:09:22.761Z,3.60
2023-05-14T10:11:56.554Z,3.22
2023-05-14T10:14:33.632Z,3.25
2023-05-14T10:17:03.221Z,3.22
2023-05-14T10:19:33.712Z,4.18
2023-05-14T10:22:04.640Z,2.70
2023-05-14T10:24:33.156Z,3.00
2023-05-14T10:27:01.079Z,2.92
2023-05-14T10:29:37.370Z,2.92
2023-05-14T10:32:06.517Z,2.78
2023-05-14T10:34:36.310Z,3.50
2023-05-14T10:37:04.524Z,4.10
2023-05-14T10:39:46.520Z,3.10
2023-05-14T10:42:16.495Z,2.72
2023-05-14T10:44:56.384Z,2.80
2023-05-14T10:47:24.077Z,3.90
2023-05-14T10:49:54.836Z,4.13
2023-05-14T10:52:23.691Z,3.15
2023-05-14T10:54:53.091Z,2.95
2023-05-14T10:57:21.844Z,3.42
2023-05-14T10:59:51.585Z,3.00
2023-05-14T11:02:25.463Z,4.43
2023-05-14T11:04:58.297Z,4.03
2023-05-14T11:07:29.190Z,3.22
2023-05-14T11:10:02.473Z,4.03
2023-05-14T11:12:30.163Z,2.45
2023-05-14T11:14:59.255Z,3.20
2023-05-14T11:17:29.153Z,3.63
2023-05-14T11:19:57.301Z,3.85
2023-05-14T11:22:25.343Z,3.15
2023-05-14T11:24:53.396Z,3.28
2023-05-14T11:27:22.360Z,2.70
2023-05-14T11:29:51.050Z,3.22
2023-05-14T11:32:19.806Z,2.42
2023-05-14T11:34:48.985Z,2.80
2023-05-14T11:37:16.791Z,3.03
2023-05-14T11:39:48.860Z,3.53
2023-05-14T11:42:16.664Z,2.78
2023-05-14T11:44:48.394Z,2.08
2023-05-14T11:47:17.406Z,3.10
2023-05-14T11:49:45.661Z,3.05
2023-05-14T11:52:16.187Z,4.05
2023-05-14T11:54:44.198Z,2.92
2023-05-14T11:57:13.665Z,3.45
2023-05-14T11:59:41.354Z,3.05
2023-05-14T12:02:10.771Z,2.67
2023-05-14T12:04:39.204Z,7.65
2023-05-14T12:07:10.800Z,3.05
2023-05-14T12:09:45.099Z,2.80
2023-05-14T12:12:12.967Z,2.75
2023-05-14T12:14:43.156Z,2.85
2023-05-14T12:17:12.904Z,3.30
2023-05-14T12:19:41.814Z,5.05
2023-05-14T12:22:09.544Z,3.03
2023-05-14T12:24:37.653Z,3.05
2023-05-14T12:27:07.845Z,3.90
2023-05-14T12:29:37.014Z,3.58
2023-05-14T12:32:08.422Z,3.90
2023-05-14T12:34:37.508Z,3.50
2023-05-14T12:37:05.794Z,3.13
2023-05-14T12:39:34.575Z,3.33
2023-05-14T12:42:02.024Z,4.90
2023-05-14T12:44:31.161Z,4.43
2023-05-14T12:46:58.544Z,3.97
2023-05-14T12:49:26.318Z,6.72
2023-05-14T12:52:07.923Z,5.05
2023-05-14T12:54:42.925Z,3.13
2023-05-14T12:57:10.475Z,3.80
2023-05-14T12:59:39.515Z,3.40
2023-05-14T13:02:07.362Z,5.22
2023-05-14T13:04:35.175Z,5.18
2023-05-14T13:07:02.528Z,4.28
2023-05-14T13:09:30.306Z,3.97
2023-05-14T13:11:57.641Z,4.30
2023-05-14T13:14:25.383Z,3.38
2023-05-14T13:16:54.211Z,5.20
2023-05-14T13:19:23.980Z,3.47
2023-05-14T13:21:51.359Z,3.83
2023-05-14T13:24:19.035Z,3.22
2023-05-14T13:26:46.412Z,4.45
2023-05-14T13:29:14.021Z,3.60
2023-05-14T13:31:41.339Z,4.25
2023-05-14T13:34:10.512Z,4.05
2023-05-14T13:36:37.909Z,3.83
2023-05-14T13:39:05.726Z,3.63
2023-05-14T13:41:33.152Z,4.53
2023-05-14T13:44:00.873Z,3.70
2023-05-14T13:46:28.466Z,3.83
2023-05-14T13:48:56.390Z,4.22
2023-05-14T13:51:25.275Z,3.33
2023-05-14T13:56:20.508Z,4.18
2023-05-14T13:58:50.172Z,5.70
2023-05-14T14:01:17.477Z,4.15
2023-05-14T14:03:45.358Z,4.43
2023-05-14T14:06:12.869Z,4.85
2023-05-14T14:08:42.065Z,5.82
2023-05-14T14:11:09.367Z,4.55
2023-05-14T14:13:37.442Z,3.80
2023-05-14T14:16:05.701Z,5.00
2023-05-14T14:18:34.018Z,6.20
2023-05-14T14:21:01.642Z,4.07
2023-05-14T14:23:29.333Z,4.00
2023-05-14T14:25:58.178Z,5.97
2023-05-14T14:28:25.934Z,4.95
2023-05-14T14:30:53.405Z,5.15
2023-05-14T14:33:21.090Z,5.55
2023-05-14T14:35:48.482Z,4.50
2023-05-14T14:38:16.299Z,5.03
2023-05-14T14:40:43.700Z,4.15
2023-05-14T14:43:12.877Z,4.97
2023-05-14T14:45:40.257Z,5.18
2023-05-14T14:48:27.401Z,5.97
2023-05-14T14:50:55.020Z,6.63
2023-05-14T14:53:23.744Z,6.65
2023-05-14T14:55:51.600Z,6.47
2023-05-14T14:58:21.228Z,5.85
2023-05-14T15:00:49.412Z,6.55
2023-05-14T15:03:18.048Z,6.82
2023-05-14T15:05:45.541Z,8.65
2023-05-14T15:08:13.561Z,7.68
2023-05-14T15:10:41.379Z,6.60
2023-05-14T15:13:09.462Z,5.97
2023-05-14T15:15:38.394Z,5.45
2023-05-14T15:18:06.329Z,6.95
2023-05-14T15:20:33.783Z,6.20
2023-05-14T15:23:01.541Z,7.40
2023-05-14T15:25:29.080Z,5.55
2023-05-14T15:27:56.742Z,7.28
2023-05-14T15:30:24.103Z,5.57
2023-05-14T15:32:53.421Z,6.15
2023-05-14T15:35:20.731Z,7.00
2023-05-14T15:37:48.537Z,5.90
2023-05-14T15:40:15.924Z,7.05
2023-05-14T15:42:44.098Z,5.93
2023-05-14T15:45:12.646Z,6.55
2023-05-14T15:47:40.745Z,5.68
2023-05-14T15:50:09.794Z,6.03
2023-05-14T15:52:37.712Z,5.60
2023-05-14T15:55:06.735Z,5.45
2023-05-14T15:57:34.651Z,7.35
2023-05-14T16:00:02.124Z,7.13
2023-05-14T16:02:29.855Z,6.25
2023-05-14T16:04:57.205Z,7.18
2023-05-14T16:07:26.340Z,5.45
2023-05-14T16:09:53.808Z,5.93
2023-05-14T16:12:21.404Z,7.30
2023-05-14T16:14:48.631Z,5.95
2023-05-14T16:17:16.388Z,5.88
2023-05-14T16:19:43.769Z,5.75
2023-05-14T16:22:11.560Z,5.88
2023-05-14T16:24:40.409Z,5.45
2023-05-14T16:27:08.135Z,5.00
2023-05-14T16:29:35.451Z,6.47
2023-05-14T16:32:03.355Z,4.30
2023-05-14T16:34:30.796Z,6.35
2023-05-14T16:36:59.560Z,5.75
2023-05-14T16:39:26.937Z,6.20
2023-05-14T16:41:56.119Z,5.63
2023-05-14T16:44:23.447Z,5.97
2023-05-14T16:46:51.463Z,5.47
2023-05-14T16:49:18.711Z,5.40
2023-05-14T16:51:46.442Z,6.95
2023-05-14T16:54:13.867Z,6.28
2023-05-14T16:56:41.674Z,6.55
2023-05-14T16:59:10.390Z,7.78
2023-05-14T17:01:38.673Z,5.43
2023-05-14T17:08:02.584Z,5.95
2023-05-14T17:11:03.019Z,5.45
2023-05-14T17:13:30.328Z,5.65
2023-05-14T17:16:24.897Z,6.32
2023-05-14T17:19:04.086Z,5.65
2023-05-14T17:24:58.027Z,6.88
2023-05-14T17:27:25.870Z,7.10
2023-05-14T17:29:53.227Z,9.23
2023-05-14T17:32:22.444Z,7.95
2023-05-14T17:34:49.824Z,8.63
2023-05-14T17:37:17.635Z,8.18
2023-05-14T17:39:49.704Z,9.20
2023-05-14T17:42:17.592Z,8.30
2023-05-14T17:44:45.068Z,8.02
2023-05-14T17:47:13.203Z,7.85
2023-05-14T17:49:42.017Z,9.00
2023-05-14T17:52:09.788Z,7.13
2023-05-14T17:54:37.297Z,7.25
2023-05-14T17:57:05.491Z,7.75
2023-05-14T17:59:32.817Z,8.75
2023-05-14T18:02:00.687Z,8.65
2023-05-14T18:04:28.215Z,11.70
2023-05-14T18:06:57.440Z,7.45
2023-05-14T18:09:24.757Z,7.38
2023-05-14T18:11:53.752Z,8.13
2023-05-14T18:14:22.083Z,9.25
2023-05-14T18:16:49.861Z,8.88
2023-05-14T18:19:17.298Z,7.03
2023-05-14T18:21:44.963Z,8.15
2023-05-14T18:24:13.915Z,7.53
2023-05-14T18:26:41.808Z,9.00
2023-05-14T18:29:09.284Z,9.00
2023-05-14T18:31:37.072Z,9.77
2023-05-14T18:34:04.623Z,9.77
2023-05-14T18:36:33.040Z,8.98
2023-05-14T18:39:00.479Z,12.55
2023-05-14T18:41:29.741Z,10.73
2023-05-14T18:43:57.136Z,8.77
2023-05-14T18:46:25.292Z,10.98
2023-05-14T18:48:52.863Z,9.10
2023-05-14T18:51:20.936Z,8.73
2023-05-14T18:53:51.326Z,8.90
2023-05-14T18:56:19.113Z,8.75
2023-05-14T18:58:48.261Z,9.02
2023-05-14T19:04:44.285Z,8.38
2023-05-14T19:04:54.989Z,10.10
2023-05-14T19:07:23.028Z,11.75
2023-05-14T19:09:55.830Z,10.48
2023-05-14T19:12:31.375Z,13.32
2023-05-14T19:15:13.303Z,10.57
2023-05-14T19:17:46.924Z,11.15
2023-05-14T19:20:14.263Z,11.40
2023-05-14T19:22:44.689Z,12.95
2023-05-14T19:25:14.906Z,12.73
2023-05-14T19:27:42.835Z,10.38
2023-05-14T19:30:14.575Z,9.70
2023-05-14T19:32:48.645Z,10.85
2023-05-14T19:35:22.628Z,9.40
2023-05-14T19:37:53.003Z,11.77
2023-05-14T19:40:23.738Z,8.48
2023-05-14T19:42:54.649Z,9.57
2023-05-14T19:45:35.574Z,11.93
2023-05-14T19:48:05.010Z,11.23
2023-05-14T19:50:35.981Z,11.02
2023-05-14T19:53:04.072Z,11.13
2023-05-14T19:55:32.842Z,13.43
2023-05-14T19:58:00.879Z,11.48
2023-05-14T20:00:37.130Z,13.23
2023-05-14T20:03:08.100Z,11.75
2023-05-14T20:05:38.891Z,12.15
2023-05-14T20:08:07.016Z,11.82
2023-05-14T20:10:39.423Z,10.00
2023-05-14T20:13:07.693Z,13.13
2023-05-14T20:15:36.734Z,12.35
2023-05-14T20:18:11.812Z,10.55
2023-05-14T20:20:39.312Z,10.38
2023-05-14T20:23:06.972Z,12.77
2023-05-14T20:25:39.269Z,10.77
2023-05-14T20:28:07.080Z,11.57
2023-05-14T20:30:36.009Z,11.20
2023-05-14T20:33:04.232Z,11.60
2023-05-14T20:35:41.216Z,12.35
2023-05-14T20:38:09.376Z,12.40
2023-05-14T20:40:36.857Z,13.77
2023-05-14T20:43:07.277Z,11.75
2023-05-14T20:45:36.217Z,13.07
2023-05-14T20:48:04.440Z,12.35
2023-05-14T20:50:42.216Z,18.63
2023-05-14T20:53:10.157Z,10.52
2023-05-14T20:55:38.056Z,10.10
2023-05-14T20:58:05.907Z,11.43
2023-05-14T21:00:33.612Z,11.93
2023-05-14T21:03:03.039Z,11.35
2023-05-14T21:05:40.627Z,9.20
2023-05-14T21:08:10.822Z,10.93
2023-05-14T21:10:38.264Z,9.05
2023-05-14T21:13:06.051Z,11.18
2023-05-14T21:15:33.348Z,11.07
2023-05-14T21:18:02.590Z,10.32
2023-05-14T21:20:30.037Z,10.20
2023-05-14T21:22:57.862Z,9.02
2023-05-14T21:25:25.675Z,11.85
2023-05-14T21:27:53.890Z,12.68
2023-05-14T21:30:22.070Z,10.05
2023-05-14T21:32:49.954Z,11.88
2023-05-14T21:35:18.828Z,10.32
2023-05-14T21:37:49.719Z,11.90
2023-05-14T21:40:17.136Z,13.02
2023-05-14T21:42:48.384Z,14.68
2023-05-14T21:45:15.938Z,14.60
2023-05-14T21:47:43.756Z,13.45
2023-05-14T21:50:14.428Z,15.00
2023-05-14T21:52:45.947Z,14.23
2023-05-14T21:55:13.350Z,16.35
2023-05-14T21:57:41.438Z,14.65
2023-05-14T22:00:09.559Z,14.23
2023-05-14T22:02:37.391Z,17.35
2023-05-14T22:05:05.598Z,13.60
2023-05-14T22:07:33.551Z,13.50
2023-05-14T22:10:02.431Z,14.75
2023-05-14T22:12:30.329Z,14.30
2023-05-14T22:14:57.759Z,12.77
2023-05-14T22:17:26.522Z,13.75
2023-05-14T22:19:53.952Z,13.35
2023-05-14T22:22:21.845Z,12.98
2023-05-14T22:24:49.194Z,11.85
2023-05-14T22:27:18.559Z,12.02
2023-05-14T22:29:45.958Z,12.30
2023-05-14T22:32:13.605Z,10.30
2023-05-14T22:34:41.046Z,11.90
2023-05-14T22:37:08.859Z,12.20
2023-05-14T22:39:36.163Z,13.07
2023-05-14T22:42:04.201Z,10.63
2023-05-14T22:44:33.029Z,14.20
2023-05-14T22:47:00.939Z,11.80
2023-05-14T22:49:28.239Z,11.93
2023-05-14T22:51:55.948Z,10.93
2023-05-14T22:54:23.347Z,11.57
2023-05-14T22:56:51.361Z,12.23
2023-05-14T22:59:18.724Z,11.40
2023-05-14T23:01:47.898Z,12.77
2023-05-14T23:04:15.311Z,11.73
2023-05-14T23:06:43.002Z,11.35
2023-05-14T23:09:10.291Z,13.77
2023-05-14T23:11:38.133Z,10.35
2023-05-14T23:14:05.545Z,11.57
2023-05-14T23:16:33.185Z,12.00
2023-05-14T23:19:02.042Z,12.30
2023-05-14T23:21:29.810Z,13.65
2023-05-14T23:23:57.073Z,17.25
2023-05-14T23:26:24.865Z,15.63
2023-05-14T23:28:52.024Z,13.02
2023-05-14T23:31:19.754Z,15.95
2023-05-14T23:33:47.090Z,15.07
2023-05-14T23:36:16.251Z,11.73
2023-05-14T23:38:43.939Z,12.02
2023-05-14T23:41:11.659Z,14.18
2023-05-14T23:43:39.114Z,12.35
2023-05-14T23:46:06.923Z,12.80
2023-05-14T23:48:34.693Z,13.27
2023-05-14T23:51:02.366Z,13.00
2023-05-14T23:53:31.094Z,13.25
2023-05-14T23:55:58.949Z,12.98
2023-05-14T23:58:26.531Z,14.93
